Time;durP1;ratioP1;P1;durP2;ratioP2;P2;SDS_P1;SDS_P2;PMS_P1;PMS_P2;Temp;Humidity;BMP_temperature;BMP_pressure;BME280_temperature;BME280_humidity;BME280_pressure;Samples;Min_cycle;Max_cycle;Signal;HPM_P1;HPM_P2
2020/12/21 00:01:56;;;;;;;10.27;4.60;;;8.10;99.90;;;;;;4868047;29;20250;-86
2020/12/21 00:04:21;;;;;;;13.37;5.27;;;8.10;99.90;;;;;;4872167;29;20261;-88
2020/12/21 00:06:55;;;;;;;10.30;4.63;;;8.10;99.90;;;;;;4882843;29;20171;-88
2020/12/21 00:09:21;;;;;;;14.40;5.87;;;8.10;99.90;;;;;;4884456;29;20262;-89
2020/12/21 00:11:48;;;;;;;10.33;5.03;;;8.10;99.90;;;;;;4882920;29;20574;-89
2020/12/21 00:14:16;;;;;;;13.73;5.43;;;8.10;99.90;;;;;;4869493;29;20608;-89
2020/12/21 00:16:46;;;;;;;12.03;4.93;;;8.10;99.90;;;;;;4866707;29;20243;-84
2020/12/21 00:19:13;;;;;;;13.43;4.60;;;8.10;99.90;;;;;;4865415;29;20251;-88
2020/12/21 00:21:41;;;;;;;9.87;4.53;;;8.10;99.90;;;;;;4866055;29;20250;-89
2020/12/21 00:24:07;;;;;;;12.27;4.33;;;8.10;99.90;;;;;;4865494;29;20164;-89
2020/12/21 00:26:34;;;;;;;13.40;4.20;;;8.10;99.90;;;;;;4866871;29;20235;-88
2020/12/21 00:29:00;;;;;;;10.50;4.30;;;8.10;99.90;;;;;;4866494;29;20310;-89
2020/12/21 00:31:31;;;;;;;13.90;4.53;;;8.10;99.90;;;;;;4866747;29;20183;-89
2020/12/21 00:34:01;;;;;;;12.43;5.13;;;8.00;99.90;;;;;;4880946;29;20184;-90
2020/12/21 00:36:27;;;;;;;13.37;4.47;;;8.00;99.90;;;;;;4880099;29;20190;-91
2020/12/21 00:38:55;;;;;;;11.43;4.53;;;8.10;99.90;;;;;;4866274;29;20180;-89
2020/12/21 00:41:24;;;;;;;9.50;4.20;;;8.10;99.90;;;;;;4866863;29;20211;-88
2020/12/21 00:43:50;;;;;;;9.83;4.23;;;8.00;99.90;;;;;;4865919;29;20276;-89
2020/12/21 00:46:22;;;;;;;11.40;5.23;;;8.10;99.90;;;;;;4865237;29;20640;-88
2020/12/21 00:48:48;;;;;;;13.43;4.40;;;8.10;99.90;;;;;;4872169;29;20188;-87
2020/12/21 00:51:15;;;;;;;9.97;4.10;;;8.10;99.90;;;;;;4878860;29;20199;-87
2020/12/21 00:53:41;;;;;;;11.50;4.37;;;8.10;99.90;;;;;;4879020;29;20172;-82
2020/12/21 00:56:07;;;;;;;13.73;5.03;;;8.10;99.90;;;;;;4878256;29;20172;-85
2020/12/21 00:58:34;;;;;;;9.83;4.80;;;8.10;99.90;;;;;;4880140;29;20218;-88
2020/12/21 01:01:07;;;;;;;15.47;5.30;;;8.10;99.90;;;;;;4865366;29;20235;-88
2020/12/21 01:03:33;;;;;;;17.43;5.43;;;8.20;99.90;;;;;;4869522;29;20191;-88
2020/12/21 01:05:58;;;;;;;10.93;4.57;;;8.10;99.90;;;;;;4866590;29;20182;-89
2020/12/21 01:08:24;;;;;;;17.53;5.67;;;8.20;99.90;;;;;;4866042;29;20175;-89
2020/12/21 01:10:50;;;;;;;13.97;5.17;;;8.20;99.90;;;;;;4865554;29;20204;-89
2020/12/21 01:13:18;;;;;;;8.23;4.77;;;8.20;99.90;;;;;;4883331;29;20660;-86
2020/12/21 01:15:43;;;;;;;13.73;5.90;;;8.20;99.90;;;;;;4873156;29;20247;-87
2020/12/21 01:18:09;;;;;;;21.40;6.27;;;8.20;99.90;;;;;;4876399;29;20175;-88
2020/12/21 01:20:35;;;;;;;12.50;6.43;;;8.20;99.90;;;;;;4874698;29;20200;-85
2020/12/21 01:23:02;;;;;;;13.93;6.50;;;8.20;99.90;;;;;;4866985;29;20187;-87
2020/12/21 01:25:27;;;;;;;15.90;6.37;;;8.20;99.90;;;;;;4881626;29;20206;-87
2020/12/21 01:27:53;;;;;;;15.10;5.97;;;8.20;99.90;;;;;;4866624;29;20179;-87
2020/12/21 01:30:20;;;;;;;14.67;5.37;;;8.30;99.90;;;;;;4871018;29;20184;-88
2020/12/21 01:32:45;;;;;;;15.10;5.20;;;8.30;99.90;;;;;;4871078;29;20180;-88
2020/12/21 01:35:11;;;;;;;13.20;5.60;;;8.30;99.90;;;;;;4869691;29;20235;-89
2020/12/21 01:37:37;;;;;;;15.13;5.70;;;8.30;99.90;;;;;;4867399;29;20199;-87
2020/12/21 01:40:04;;;;;;;10.30;5.00;;;8.30;99.90;;;;;;4865821;29;20171;-89
2020/12/21 01:42:30;;;;;;;10.23;4.90;;;8.20;99.90;;;;;;4864504;29;20242;-87
2020/12/21 01:47:24;;;;;;;14.63;4.93;;;8.40;99.90;;;;;;4924220;23;20767;-78
2020/12/21 01:49:51;;;;;;;16.20;5.40;;;8.40;99.90;;;;;;4922277;29;20181;-79
2020/12/21 01:52:18;;;;;;;12.80;5.03;;;8.50;99.90;;;;;;4922892;29;20170;-79
2020/12/21 01:54:45;;;;;;;10.00;4.50;;;8.50;99.90;;;;;;4903415;29;20237;-79
2020/12/21 01:57:11;;;;;;;11.57;4.60;;;8.40;99.90;;;;;;4902568;29;20273;-79
2020/12/21 01:59:36;;;;;;;10.13;4.40;;;8.50;99.90;;;;;;4919845;29;20205;-79
2020/12/21 02:02:02;;;;;;;9.93;4.40;;;8.40;99.90;;;;;;4920404;29;20207;-78
2020/12/21 02:04:28;;;;;;;11.73;4.23;;;8.50;99.90;;;;;;4921173;29;20174;-80
2020/12/21 02:06:56;;;;;;;12.07;4.57;;;8.50;99.90;;;;;;4921168;29;20169;-80
2020/12/21 02:09:22;;;;;;;12.97;5.00;;;8.60;99.90;;;;;;4919671;29;20221;-79
2020/12/21 02:11:47;;;;;;;10.60;4.83;;;8.50;99.90;;;;;;4903450;29;20661;-79
2020/12/21 02:14:13;;;;;;;8.13;3.90;;;8.60;99.90;;;;;;4920301;29;20638;-78
2020/12/21 02:16:39;;;;;;;11.97;3.70;;;8.60;99.90;;;;;;4921869;29;20196;-79
2020/12/21 02:19:04;;;;;;;11.43;4.53;;;8.40;99.90;;;;;;4923374;29;20166;-78
2020/12/21 02:21:30;;;;;;;11.37;3.87;;;8.40;99.90;;;;;;4905788;29;20213;-79
2020/12/21 02:23:56;;;;;;;10.10;3.40;;;8.40;99.90;;;;;;4922377;29;20162;-79
2020/12/21 02:26:23;;;;;;;14.60;3.77;;;8.30;99.90;;;;;;4921639;29;20256;-80
2020/12/21 02:29:12;;;;;;;11.67;3.57;;;8.30;99.90;;;;;;4921743;29;20173;-79
2020/12/21 02:31:38;;;;;;;7.97;3.40;;;8.40;99.90;;;;;;4919130;29;20178;-80
2020/12/21 02:34:03;;;;;;;11.27;4.10;;;8.30;99.90;;;;;;4903896;29;20185;-79
2020/12/21 02:36:29;;;;;;;8.27;3.60;;;8.30;99.90;;;;;;4921008;29;20168;-78
2020/12/21 02:38:55;;;;;;;10.37;3.70;;;8.30;99.90;;;;;;4927247;29;20173;-78
2020/12/21 02:41:21;;;;;;;14.90;3.77;;;8.30;99.90;;;;;;4927464;29;20208;-78
2020/12/21 02:43:46;;;;;;;10.20;3.40;;;8.40;99.90;;;;;;4926415;29;20189;-79
2020/12/21 02:46:17;;;;;;;7.83;3.57;;;8.40;99.90;;;;;;4919985;29;20572;-79
2020/12/21 02:48:47;;;;;;;9.23;3.30;;;8.40;99.90;;;;;;4921730;29;20178;-79
2020/12/21 02:51:16;;;;;;;11.63;3.10;;;8.40;99.90;;;;;;4920415;29;20166;-79
2020/12/21 02:53:42;;;;;;;10.97;3.80;;;8.40;99.90;;;;;;4919979;29;20649;-79
2020/12/21 02:56:08;;;;;;;11.70;3.47;;;8.30;99.90;;;;;;4918783;29;20170;-79
2020/12/21 02:58:34;;;;;;;11.13;2.93;;;8.30;99.90;;;;;;4919388;29;20194;-79
2020/12/21 03:01:00;;;;;;;12.33;2.93;;;8.30;99.90;;;;;;4901628;29;20555;-79
2020/12/21 03:03:25;;;;;;;10.90;3.17;;;8.30;99.90;;;;;;4920326;29;20165;-80
2020/12/21 03:05:51;;;;;;;11.77;3.00;;;8.30;99.90;;;;;;4919404;29;20630;-79
2020/12/21 03:08:17;;;;;;;11.43;3.30;;;8.40;99.90;;;;;;4918994;29;20169;-79
2020/12/21 03:10:43;;;;;;;7.93;3.07;;;8.30;99.90;;;;;;4919425;29;20178;-79
2020/12/21 03:13:11;;;;;;;11.80;3.60;;;8.30;99.90;;;;;;4901445;29;20206;-80
2020/12/21 03:15:37;;;;;;;7.90;3.03;;;8.30;99.90;;;;;;4919014;29;20593;-79
2020/12/21 03:18:03;;;;;;;8.60;3.03;;;8.30;99.90;;;;;;4918462;29;20179;-79
2020/12/21 03:20:29;;;;;;;9.07;3.20;;;8.30;99.90;;;;;;4919067;29;20229;-79
2020/12/21 03:22:54;;;;;;;9.57;2.80;;;8.30;99.90;;;;;;4903227;29;20182;-79
2020/12/21 03:25:20;;;;;;;11.77;3.30;;;8.50;99.90;;;;;;4919351;29;20174;-79
2020/12/21 03:27:46;;;;;;;9.47;3.70;;;8.30;99.90;;;;;;4919968;29;20170;-78
2020/12/21 03:30:12;;;;;;;11.50;3.80;;;8.40;99.90;;;;;;4922153;29;20701;-78
2020/12/21 03:32:38;;;;;;;12.53;3.70;;;8.30;99.90;;;;;;4920793;29;20216;-78
2020/12/21 03:35:05;;;;;;;5.80;2.90;;;8.30;99.90;;;;;;4920098;29;20252;-78
2020/12/21 03:37:34;;;;;;;10.20;2.97;;;8.30;99.90;;;;;;4919903;29;20178;-78
2020/12/21 03:40:04;;;;;;;13.67;3.07;;;8.30;99.90;;;;;;4920501;29;20177;-78
2020/12/21 03:42:29;;;;;;;8.80;3.10;;;8.30;99.90;;;;;;4903014;29;20221;-79
2020/12/21 03:44:55;;;;;;;9.83;3.13;;;8.30;99.90;;;;;;4919842;29;20174;-79
2020/12/21 03:47:21;;;;;;;12.30;3.33;;;8.30;99.90;;;;;;4919091;29;20268;-78
2020/12/21 03:49:46;;;;;;;9.70;3.40;;;8.30;99.90;;;;;;4920386;29;20268;-79
2020/12/21 03:52:13;;;;;;;10.10;3.30;;;8.30;99.90;;;;;;4919851;29;20196;-79
2020/12/21 03:54:39;;;;;;;10.27;3.17;;;8.40;99.90;;;;;;4919893;29;20174;-78
2020/12/21 03:57:06;;;;;;;7.40;3.30;;;8.50;99.90;;;;;;4919752;29;20222;-79
2020/12/21 03:59:32;;;;;;;12.13;3.20;;;8.50;99.90;;;;;;4919684;29;20178;-78
2020/12/21 04:01:57;;;;;;;9.23;3.67;;;8.60;99.90;;;;;;4919224;29;20261;-79
2020/12/21 04:04:23;;;;;;;6.83;3.27;;;8.50;99.90;;;;;;4919304;29;20178;-79
2020/12/21 04:06:48;;;;;;;9.77;3.80;;;8.50;99.90;;;;;;4919771;29;20181;-79
2020/12/21 04:09:14;;;;;;;11.63;3.40;;;8.50;99.90;;;;;;4919513;29;20170;-78
2020/12/21 04:11:40;;;;;;;9.23;3.00;;;8.50;99.90;;;;;;4919455;29;20188;-78
2020/12/21 04:14:05;;;;;;;11.33;3.47;;;8.60;99.90;;;;;;4919455;29;20649;-78
2020/12/21 04:16:31;;;;;;;10.73;3.53;;;8.60;99.90;;;;;;4918716;29;20197;-77
2020/12/21 04:18:57;;;;;;;11.03;3.53;;;8.60;99.90;;;;;;4919157;29;20713;-79
2020/12/21 04:21:22;;;;;;;9.40;4.03;;;8.60;99.90;;;;;;4919088;29;20284;-79
2020/12/21 04:23:48;;;;;;;9.70;3.97;;;8.60;99.90;;;;;;4919123;29;20184;-79
2020/12/21 04:26:14;;;;;;;12.50;4.07;;;8.60;99.90;;;;;;4918896;29;20645;-79
2020/12/21 04:28:39;;;;;;;8.40;3.63;;;8.60;99.90;;;;;;4918942;29;20534;-79
2020/12/21 04:31:06;;;;;;;7.67;3.63;;;8.70;99.90;;;;;;4919056;29;20261;-79
2020/12/21 04:33:33;;;;;;;12.70;4.10;;;8.70;99.90;;;;;;4918739;29;20166;-79
2020/12/21 04:35:59;;;;;;;16.53;3.93;;;8.70;99.90;;;;;;4919027;29;20209;-79
2020/12/21 04:38:25;;;;;;;10.93;3.43;;;8.60;99.90;;;;;;4918595;29;20170;-77
2020/12/21 04:40:57;;;;;;;9.57;3.70;;;8.60;99.90;;;;;;4917951;29;20653;-78
2020/12/21 04:43:23;;;;;;;12.43;3.93;;;8.50;99.90;;;;;;4918667;29;20185;-77
2020/12/21 04:45:54;;;;;;;7.47;3.37;;;8.50;99.90;;;;;;4918365;29;20209;-79
2020/12/21 04:48:23;;;;;;;14.13;4.17;;;8.50;99.90;;;;;;4918313;29;20178;-79
2020/12/21 04:50:53;;;;;;;12.90;4.10;;;8.60;99.90;;;;;;4918928;29;20477;-77
2020/12/21 04:53:20;;;;;;;12.13;3.80;;;8.60;99.90;;;;;;4918539;29;20178;-79
2020/12/21 04:55:46;;;;;;;9.40;4.17;;;8.60;99.90;;;;;;4918504;29;20170;-77
2020/12/21 04:58:12;;;;;;;9.87;4.03;;;8.50;99.90;;;;;;4918267;29;20626;-79
2020/12/21 05:00:38;;;;;;;11.77;4.30;;;8.50;99.90;;;;;;4917824;29;20173;-78
2020/12/21 05:03:05;;;;;;;9.47;3.70;;;8.50;99.90;;;;;;4918527;29;20189;-79
2020/12/21 05:05:38;;;;;;;13.57;5.07;;;8.50;99.90;;;;;;4918490;29;20264;-76
2020/12/21 05:08:21;;;;;;;8.73;4.63;;;8.50;99.90;;;;;;4918153;29;20174;-79
2020/12/21 05:10:58;;;;;;;12.43;4.30;;;8.50;99.90;;;;;;4918150;29;20232;-79
2020/12/21 05:13:24;;;;;;;8.87;4.00;;;8.40;99.90;;;;;;4917979;29;20694;-80
2020/12/21 05:15:57;;;;;;;11.13;4.37;;;8.40;99.90;;;;;;4901178;29;20274;-78
2020/12/21 05:18:27;;;;;;;13.80;4.73;;;8.50;99.90;;;;;;4918764;29;20177;-78
2020/12/21 05:21:01;;;;;;;13.03;4.87;;;8.50;99.90;;;;;;4917765;29;20205;-79
2020/12/21 05:23:27;;;;;;;9.37;4.50;;;8.60;99.90;;;;;;4917905;29;20264;-78
2020/12/21 05:26:05;;;;;;;10.77;4.60;;;8.60;99.90;;;;;;4917878;29;20720;-79
2020/12/21 05:28:40;;;;;;;11.13;5.07;;;8.60;99.90;;;;;;4917623;29;20205;-76
2020/12/21 05:31:08;;;;;;;12.63;4.93;;;8.60;99.90;;;;;;4918273;29;20216;-77
2020/12/21 05:33:40;;;;;;;11.80;4.73;;;8.70;99.90;;;;;;4918052;29;20181;-78
2020/12/21 05:36:10;;;;;;;10.60;4.83;;;8.70;99.90;;;;;;4901036;29;20181;-78
2020/12/21 05:38:37;;;;;;;9.77;4.67;;;8.70;99.90;;;;;;4917878;29;20182;-80
2020/12/21 05:41:12;;;;;;;12.17;5.10;;;8.70;99.90;;;;;;4917683;29;20236;-80
2020/12/21 05:43:39;;;;;;;9.13;4.23;;;8.80;99.90;;;;;;4917497;29;20165;-78
2020/12/21 05:46:06;;;;;;;11.33;4.57;;;8.80;99.90;;;;;;4917443;29;20295;-77
2020/12/21 05:48:33;;;;;;;10.33;4.97;;;8.80;99.90;;;;;;4917547;29;20205;-80
2020/12/21 05:51:05;;;;;;;11.47;4.87;;;8.80;99.90;;;;;;4917521;29;20256;-80
2020/12/21 05:53:36;;;;;;;9.63;5.03;;;8.80;99.90;;;;;;4917054;29;20190;-78
2020/12/21 05:56:05;;;;;;;11.10;4.80;;;8.80;99.90;;;;;;4900717;29;20178;-80
2020/12/21 05:58:34;;;;;;;7.50;4.77;;;8.80;99.90;;;;;;4917376;29;20177;-78
2020/12/21 06:01:11;;;;;;;10.43;5.10;;;8.90;99.90;;;;;;4900285;29;20740;-78
2020/12/21 06:03:44;;;;;;;11.83;5.37;;;8.90;99.90;;;;;;4917339;29;20256;-79
2020/12/21 06:06:15;;;;;;;10.50;5.07;;;8.90;99.90;;;;;;4900320;29;20543;-79
2020/12/21 06:08:41;;;;;;;9.07;4.83;;;8.90;99.90;;;;;;4917274;29;20249;-78
2020/12/21 06:11:15;;;;;;;13.70;5.00;;;8.90;99.90;;;;;;4917289;29;20169;-78
2020/12/21 06:14:02;;;;;;;12.57;5.17;;;9.00;99.90;;;;;;4917070;29;20229;-78
2020/12/21 06:16:30;;;;;;;9.87;4.93;;;9.00;99.90;;;;;;4916949;29;20205;-78
2020/12/21 06:19:22;;;;;;;14.27;5.57;;;9.10;99.90;;;;;;4917407;29;20162;-77
2020/12/21 06:21:50;;;;;;;14.27;5.20;;;9.00;99.90;;;;;;4916932;29;20231;-79
2020/12/21 06:24:25;;;;;;;12.47;4.60;;;9.00;99.90;;;;;;4900276;29;20201;-78
2020/12/21 06:26:53;;;;;;;10.03;4.73;;;9.00;99.90;;;;;;4916977;29;20172;-79
2020/12/21 06:29:24;;;;;;;14.63;5.27;;;9.00;99.90;;;;;;4917536;29;20172;-79
2020/12/21 06:31:54;;;;;;;11.47;4.97;;;9.00;99.90;;;;;;4917981;29;20178;-79
2020/12/21 06:34:29;;;;;;;10.90;4.43;;;9.10;99.90;;;;;;4901491;29;20193;-78
2020/12/21 06:37:09;;;;;;;12.17;5.27;;;9.10;99.90;;;;;;4917683;29;20172;-78
2020/12/21 06:39:36;;;;;;;7.50;4.77;;;9.10;99.90;;;;;;4900836;29;20545;-80
2020/12/21 06:42:04;;;;;;;14.20;4.90;;;9.20;99.90;;;;;;4917351;29;20207;-79
2020/12/21 06:44:31;;;;;;;10.80;5.03;;;9.20;99.90;;;;;;4917814;29;20170;-78
2020/12/21 06:46:57;;;;;;;12.60;4.70;;;9.20;99.90;;;;;;4901143;29;20215;-79
2020/12/21 06:49:23;;;;;;;11.20;4.50;;;9.20;99.90;;;;;;4918504;29;20241;-78
2020/12/21 06:51:50;;;;;;;11.60;3.97;;;9.30;99.90;;;;;;4918632;29;20170;-79
2020/12/21 06:54:18;;;;;;;9.73;4.03;;;9.30;99.90;;;;;;4918062;29;20262;-79
2020/12/21 06:56:47;;;;;;;10.13;3.60;;;9.20;99.90;;;;;;4919960;29;20662;-78
2020/12/21 06:59:17;;;;;;;9.43;4.20;;;9.20;99.90;;;;;;4917864;29;20265;-79
2020/12/21 07:01:45;;;;;;;11.10;4.53;;;9.30;99.90;;;;;;4918594;29;20201;-79
2020/12/21 07:04:23;;;;;;;12.93;4.53;;;9.30;99.90;;;;;;4919828;29;20174;-77
2020/12/21 07:06:51;;;;;;;10.47;4.27;;;9.40;99.90;;;;;;4921158;29;20170;-78
2020/12/21 07:09:26;;;;;;;10.40;4.27;;;9.40;99.90;;;;;;4921797;29;20176;-80
2020/12/21 07:12:00;;;;;;;12.03;4.10;;;9.30;99.90;;;;;;4931092;29;20236;-77
2020/12/21 07:14:36;;;;;;;10.50;3.83;;;9.40;99.90;;;;;;4929437;29;20648;-78
2020/12/21 07:17:05;;;;;;;9.80;3.93;;;9.40;99.90;;;;;;4932729;29;20166;-76
2020/12/21 07:19:32;;;;;;;9.73;3.50;;;9.40;99.90;;;;;;4935846;29;20233;-77
2020/12/21 07:21:57;;;;;;;7.30;3.70;;;9.40;99.90;;;;;;4918109;29;20217;-78
2020/12/21 07:24:25;;;;;;;13.10;4.03;;;9.40;99.90;;;;;;4926516;29;20165;-79
2020/12/21 07:26:54;;;;;;;8.27;4.00;;;9.40;99.90;;;;;;4923513;29;20748;-79
2020/12/21 07:29:20;;;;;;;13.00;3.70;;;9.40;99.90;;;;;;4923830;29;20162;-77
2020/12/21 07:31:46;;;;;;;8.23;3.30;;;9.50;99.90;;;;;;4906338;29;20194;-78
2020/12/21 07:34:15;;;;;;;8.07;3.57;;;9.40;99.90;;;;;;4906707;29;20185;-80
2020/12/21 07:36:41;;;;;;;10.60;3.83;;;9.50;99.90;;;;;;4922500;29;20260;-78
2020/12/21 07:39:17;;;;;;;8.03;3.53;;;9.50;99.90;;;;;;4922133;29;20261;-80
2020/12/21 07:41:48;;;;;;;8.63;3.77;;;9.40;99.90;;;;;;4888918;29;20217;-79
2020/12/21 07:44:24;;;;;;;8.60;3.93;;;9.40;99.90;;;;;;4920401;29;20166;-79
2020/12/21 07:47:16;;;;;;;10.90;3.60;;;9.40;99.90;;;;;;4920508;29;20215;-79
2020/12/21 07:49:43;;;;;;;8.00;3.50;;;9.40;99.90;;;;;;4920314;29;20264;-80
2020/12/21 07:52:10;;;;;;;5.00;2.80;;;9.40;99.90;;;;;;4920296;29;20172;-79
2020/12/21 07:54:42;;;;;;;8.13;3.70;;;9.40;99.90;;;;;;4920524;29;20176;-79
2020/12/21 07:57:19;;;;;;;7.23;3.40;;;9.40;99.90;;;;;;4919981;29;20174;-81
2020/12/21 07:59:59;;;;;;;7.80;3.23;;;9.40;99.90;;;;;;4920017;29;20169;-78
2020/12/21 08:02:29;;;;;;;9.20;3.50;;;9.40;99.90;;;;;;4926064;29;20544;-77
2020/12/21 08:04:55;;;;;;;8.60;3.50;;;9.40;99.90;;;;;;4929082;29;20157;-78
2020/12/21 08:07:30;;;;;;;10.20;3.70;;;9.40;99.90;;;;;;4924241;29;20245;-77
2020/12/21 08:09:57;;;;;;;7.90;3.53;;;9.50;99.90;;;;;;4922622;29;20168;-81
2020/12/21 08:12:29;;;;;;;12.13;4.00;;;9.50;99.90;;;;;;4903344;29;20170;-80
2020/12/21 08:14:59;;;;;;;8.10;3.47;;;9.60;99.90;;;;;;4919898;29;20205;-79
2020/12/21 08:17:29;;;;;;;7.23;3.00;;;9.60;99.90;;;;;;4902356;29;20181;-79
2020/12/21 08:19:56;;;;;;;7.63;3.20;;;9.70;99.90;;;;;;4920092;29;20173;-81
2020/12/21 08:22:29;;;;;;;7.90;3.50;;;9.60;99.90;;;;;;4920095;29;20688;-79
2020/12/21 08:25:03;;;;;;;6.30;3.10;;;9.60;99.90;;;;;;4919520;29;20173;-79
2020/12/21 08:27:28;;;;;;;7.63;3.10;;;9.60;99.90;;;;;;4919802;29;20673;-80
2020/12/21 08:30:22;;;;;;;8.67;3.30;;;9.60;99.90;;;;;;4919416;29;20162;-78
2020/12/21 08:32:52;;;;;;;13.70;4.27;;;9.70;99.90;;;;;;4919243;29;20173;-80
2020/12/21 08:35:27;;;;;;;7.43;3.20;;;9.60;99.90;;;;;;4919877;29;20181;-78
2020/12/21 08:38:14;;;;;;;8.07;2.93;;;9.70;99.90;;;;;;4919051;29;20172;-77
2020/12/21 08:40:40;;;;;;;9.53;3.13;;;9.70;99.90;;;;;;4918869;29;20165;-79
2020/12/21 08:43:08;;;;;;;8.03;2.70;;;9.60;99.90;;;;;;4920083;29;20252;-79
2020/12/21 08:45:37;;;;;;;6.97;3.17;;;9.60;99.90;;;;;;4940401;29;20249;-79
2020/12/21 08:48:03;;;;;;;8.30;2.70;;;9.60;99.90;;;;;;4941431;29;20197;-78
2020/12/21 08:50:28;;;;;;;8.63;2.90;;;9.60;99.90;;;;;;4922877;29;20177;-79
2020/12/21 08:52:54;;;;;;;5.97;2.70;;;9.60;99.90;;;;;;4918858;29;20197;-81
2020/12/21 08:55:20;;;;;;;5.10;2.50;;;9.60;99.90;;;;;;4919180;29;20523;-77
2020/12/21 08:57:45;;;;;;;6.77;2.80;;;9.60;99.90;;;;;;4919773;29;20225;-79
2020/12/21 09:00:11;;;;;;;4.53;2.20;;;9.60;99.90;;;;;;4918887;29;20205;-78
2020/12/21 09:02:36;;;;;;;6.27;2.37;;;9.60;99.90;;;;;;4919536;29;20744;-78
2020/12/21 09:05:05;;;;;;;5.20;2.13;;;9.60;99.90;;;;;;4919805;29;20650;-81
2020/12/21 09:07:31;;;;;;;5.50;2.50;;;9.60;99.90;;;;;;4919389;29;20181;-81
2020/12/21 09:09:56;;;;;;;6.63;2.40;;;9.60;99.90;;;;;;4919143;29;20165;-80
2020/12/21 09:12:22;;;;;;;5.73;2.27;;;9.70;99.90;;;;;;4919361;29;20178;-80
2020/12/21 09:14:47;;;;;;;5.73;2.27;;;9.70;99.90;;;;;;4920099;29;20197;-80
2020/12/21 09:17:13;;;;;;;5.57;2.30;;;9.70;99.90;;;;;;4919922;29;20225;-78
2020/12/21 09:19:39;;;;;;;6.70;2.33;;;9.80;99.90;;;;;;4918764;29;20169;-80
2020/12/21 09:22:04;;;;;;;5.13;2.27;;;9.80;99.90;;;;;;4918205;29;20302;-79
2020/12/21 09:24:30;;;;;;;6.73;2.57;;;9.80;99.90;;;;;;4918626;29;20273;-81
2020/12/21 09:26:56;;;;;;;4.97;2.40;;;9.80;99.90;;;;;;4918542;29;20177;-78
2020/12/21 09:29:21;;;;;;;5.70;2.37;;;9.80;99.90;;;;;;4903223;29;20245;-80
2020/12/21 09:31:47;;;;;;;7.20;2.30;;;9.80;99.90;;;;;;4918833;29;20229;-79
2020/12/21 09:34:13;;;;;;;6.80;2.20;;;9.80;99.90;;;;;;4918861;29;20260;-79
2020/12/21 09:36:41;;;;;;;6.30;2.00;;;9.90;99.90;;;;;;4918323;29;20174;-79
2020/12/21 09:39:07;;;;;;;4.87;2.30;;;9.90;99.90;;;;;;4919003;29;20323;-79
2020/12/21 09:41:32;;;;;;;5.00;2.20;;;9.90;99.90;;;;;;4918915;29;20328;-81
2020/12/21 09:43:58;;;;;;;6.60;2.60;;;10.00;99.90;;;;;;4918897;29;20275;-77
2020/12/21 09:46:24;;;;;;;4.27;2.20;;;10.00;99.90;;;;;;4918505;29;20216;-79
2020/12/21 09:48:52;;;;;;;5.83;2.60;;;10.00;99.90;;;;;;4904144;29;20185;-77
2020/12/21 09:51:18;;;;;;;4.93;3.77;;;10.00;99.90;;;;;;4918444;29;20653;-79
2020/12/21 09:53:44;;;;;;;5.27;2.23;;;10.00;99.90;;;;;;4919603;29;20174;-79
2020/12/21 09:56:11;;;;;;;6.97;1.93;;;10.00;99.90;;;;;;4917976;29;20603;-80
2020/12/21 09:58:37;;;;;;;4.77;2.00;;;10.00;99.90;;;;;;4918111;29;20178;-79
2020/12/21 10:01:04;;;;;;;7.33;1.83;;;9.90;99.90;;;;;;4918018;29;20217;-80
2020/12/21 10:03:30;;;;;;;8.67;5.17;;;10.00;99.90;;;;;;4918694;29;20209;-79
2020/12/21 10:05:55;;;;;;;5.90;3.00;;;10.10;99.90;;;;;;4919254;29;20201;-78
2020/12/21 10:08:21;;;;;;;5.53;2.50;;;10.00;99.90;;;;;;4918481;29;20256;-79
2020/12/21 10:10:48;;;;;;;3.37;1.90;;;10.00;99.90;;;;;;4918892;29;20170;-80
2020/12/21 10:13:14;;;;;;;4.97;1.90;;;10.20;99.90;;;;;;4918528;29;20174;-80
2020/12/21 10:15:39;;;;;;;7.83;2.03;;;10.10;99.90;;;;;;4919439;29;20174;-77
2020/12/21 10:18:06;;;;;;;3.00;1.50;;;10.10;99.90;;;;;;4919417;29;20253;-79
2020/12/21 10:20:32;;;;;;;5.53;1.80;;;10.00;99.90;;;;;;4918718;29;20185;-77
2020/12/21 10:22:57;;;;;;;5.97;1.53;;;10.10;99.90;;;;;;4919082;29;20272;-78
2020/12/21 10:25:24;;;;;;;4.47;2.03;;;10.10;99.90;;;;;;4904165;29;20180;-80
2020/12/21 10:27:51;;;;;;;5.20;1.50;;;10.00;99.90;;;;;;4903032;29;20233;-78
2020/12/21 10:30:18;;;;;;;4.53;2.00;;;10.10;99.90;;;;;;4918568;29;20183;-79
2020/12/21 10:32:43;;;;;;;3.93;1.60;;;9.90;99.90;;;;;;4918623;29;20174;-80
2020/12/21 10:35:10;;;;;;;3.33;1.50;;;10.00;99.90;;;;;;4918195;29;20709;-77
2020/12/21 10:37:36;;;;;;;4.57;1.33;;;9.90;99.90;;;;;;4918772;29;20182;-79
2020/12/21 10:40:02;;;;;;;3.60;1.40;;;10.00;99.90;;;;;;4903836;29;20618;-78
2020/12/21 10:42:28;;;;;;;2.83;1.40;;;10.00;99.90;;;;;;4922611;29;20213;-81
2020/12/21 10:44:53;;;;;;;4.70;1.27;;;10.10;99.90;;;;;;4921993;29;20169;-81
2020/12/21 10:47:19;;;;;;;2.97;1.33;;;10.20;99.90;;;;;;4921826;29;20325;-78
2020/12/21 10:49:46;;;;;;;4.83;1.83;;;10.10;99.90;;;;;;4922979;29;20165;-81
2020/12/21 10:52:11;;;;;;;3.80;1.20;;;10.10;99.90;;;;;;4922740;29;20185;-79
2020/12/21 10:54:38;;;;;;;3.83;1.17;;;10.20;99.90;;;;;;4925245;29;20169;-81
2020/12/21 10:57:06;;;;;;;3.10;1.07;;;10.20;99.90;;;;;;4924568;29;20182;-78
2020/12/21 10:59:34;;;;;;;3.53;1.30;;;10.20;99.90;;;;;;4922672;29;20233;-80
2020/12/21 11:02:00;;;;;;;2.73;1.30;;;10.10;99.90;;;;;;4905123;29;20580;-77
2020/12/21 11:04:26;;;;;;;3.13;1.30;;;10.10;99.90;;;;;;4922913;29;20166;-79
2020/12/21 11:06:51;;;;;;;2.67;1.47;;;10.10;99.90;;;;;;4922530;29;20202;-82
2020/12/21 11:09:17;;;;;;;4.37;1.40;;;10.20;99.90;;;;;;4923801;29;20605;-79
2020/12/21 11:11:43;;;;;;;4.70;1.30;;;10.20;99.90;;;;;;4907616;29;20212;-79
2020/12/21 11:14:08;;;;;;;4.07;1.50;;;10.20;99.90;;;;;;4924139;29;20174;-80
2020/12/21 11:16:35;;;;;;;2.90;1.10;;;10.20;99.90;;;;;;4922717;29;20165;-80
2020/12/21 11:19:00;;;;;;;2.70;1.07;;;10.20;99.90;;;;;;4910381;29;20185;-79
2020/12/21 11:21:26;;;;;;;4.33;1.20;;;10.20;99.90;;;;;;4923450;29;20205;-78
2020/12/21 11:23:52;;;;;;;1.97;1.13;;;10.20;99.90;;;;;;4923779;29;20257;-80
2020/12/21 11:26:19;;;;;;;3.20;1.20;;;10.20;99.90;;;;;;4923103;29;20689;-81
2020/12/21 11:28:46;;;;;;;4.20;1.30;;;10.10;99.90;;;;;;4923586;29;20260;-79
2020/12/21 11:31:15;;;;;;;4.00;1.47;;;10.10;99.90;;;;;;4923042;29;20162;-78
2020/12/21 11:33:41;;;;;;;2.30;1.00;;;10.10;99.90;;;;;;4905422;29;20181;-78
2020/12/21 11:36:07;;;;;;;3.63;1.40;;;10.10;99.90;;;;;;4923382;29;20184;-79
2020/12/21 11:38:34;;;;;;;1.70;1.20;;;10.10;99.90;;;;;;4922983;29;20189;-79
2020/12/21 11:41:00;;;;;;;2.27;1.10;;;10.10;99.90;;;;;;4924585;29;20166;-78
2020/12/21 11:43:26;;;;;;;4.90;2.80;;;10.20;99.90;;;;;;4908106;29;20641;-78
2020/12/21 11:45:52;;;;;;;3.10;1.30;;;10.10;99.90;;;;;;4924086;29;20692;-81
2020/12/21 11:48:17;;;;;;;3.50;1.13;;;10.10;99.90;;;;;;4922462;29;20188;-80
2020/12/21 11:50:43;;;;;;;4.40;1.13;;;10.10;99.90;;;;;;4922428;29;20177;-81
2020/12/21 11:53:10;;;;;;;2.57;1.10;;;10.20;99.90;;;;;;4922009;29;20165;-81
2020/12/21 11:55:35;;;;;;;3.87;1.13;;;10.10;99.90;;;;;;4921292;29;20174;-79
2020/12/21 11:58:01;;;;;;;3.40;1.40;;;10.10;99.90;;;;;;4922186;29;20225;-80
2020/12/21 12:00:26;;;;;;;4.30;1.43;;;10.10;99.90;;;;;;4904612;29;20268;-78
2020/12/21 12:02:52;;;;;;;3.77;1.40;;;10.00;99.90;;;;;;4922559;29;20213;-79
2020/12/21 12:05:18;;;;;;;4.67;1.80;;;10.10;99.90;;;;;;4924025;29;20646;-80
2020/12/21 12:07:43;;;;;;;5.63;1.70;;;10.10;99.90;;;;;;4922825;29;20174;-81
2020/12/21 12:10:09;;;;;;;3.30;1.43;;;10.10;99.90;;;;;;4922374;29;20170;-79
2020/12/21 12:12:35;;;;;;;4.67;1.77;;;10.00;99.90;;;;;;4923404;29;20170;-79
2020/12/21 12:15:01;;;;;;;3.30;1.67;;;10.10;99.90;;;;;;4922961;29;20614;-77
2020/12/21 12:17:27;;;;;;;3.00;1.40;;;10.00;99.90;;;;;;4921919;29;20257;-79
2020/12/21 12:19:53;;;;;;;4.53;1.60;;;10.00;99.90;;;;;;4923188;29;20177;-80
2020/12/21 12:22:19;;;;;;;4.73;1.70;;;10.00;99.90;;;;;;4907985;29;20593;-81
2020/12/21 12:24:45;;;;;;;5.57;1.23;;;10.00;99.90;;;;;;4922562;29;20174;-78
2020/12/21 12:27:10;;;;;;;4.47;1.60;;;10.10;99.90;;;;;;4922267;29;20281;-78
2020/12/21 12:29:36;;;;;;;3.23;1.13;;;10.00;99.90;;;;;;4924076;29;20198;-79
2020/12/21 12:32:02;;;;;;;4.50;1.60;;;9.90;99.90;;;;;;4922617;29;20304;-80
2020/12/21 12:34:27;;;;;;;3.33;1.20;;;9.90;99.90;;;;;;4923871;29;20177;-81
2020/12/21 12:36:53;;;;;;;3.40;1.30;;;9.90;99.90;;;;;;4925074;29;20177;-80
2020/12/21 12:39:19;;;;;;;4.33;1.73;;;10.00;99.90;;;;;;4926653;29;20233;-80
2020/12/21 12:41:45;;;;;;;3.30;1.40;;;10.00;99.90;;;;;;4909699;29;20221;-82
2020/12/21 12:44:11;;;;;;;3.47;1.50;;;10.10;99.90;;;;;;4909854;29;20188;-81
2020/12/21 12:46:37;;;;;;;3.40;1.70;;;10.00;99.90;;;;;;4925647;29;20224;-82
2020/12/21 12:49:05;;;;;;;3.03;1.67;;;10.00;99.90;;;;;;4907980;29;20178;-81
2020/12/21 12:51:32;;;;;;;2.47;1.37;;;10.00;99.90;;;;;;4904674;29;20174;-77
2020/12/21 12:53:58;;;;;;;2.93;1.50;;;10.10;99.90;;;;;;4921717;29;20166;-80
2020/12/21 12:56:24;;;;;;;3.77;2.00;;;10.00;99.90;;;;;;4905439;29;20547;-81